Terminal Aerodrome Forecast
Issued by NWS

Home | Current Version | Previous Version | Text Only | Print | Product List | Glossary On
Versions: 1 2 3 4 5 6 7 8 9 10 11 12 13 14 15 16 17 18 19 20 21
000
FTUS43 KPAH 040520
TAFCGI
TAF
KCGI 040520Z 0406/0506 00000KT P6SM FEW050
     FM040900 00000KT 5SM BR SKC
      TEMPO 0409/0413 2SM BR SCT006
     FM041500 VRB05KT P6SM BKN035
     FM050200 00000KT P6SM SCT040=

USA.gov is the U.S. government's official web portal to all federal, state and local government web resources and services.